Time;durP1;ratioP1;P1;durP2;ratioP2;P2;SDS_P1;SDS_P2;PMS_P1;PMS_P2;Temp;Humidity;BMP_temperature;BMP_pressure;BME280_temperature;BME280_humidity;BME280_pressure;Samples;Min_cycle;Max_cycle;Signal;HPM_P1;HPM_P2
2023/01/24 00:00:03;;;;;;;28.80;16.13;;;;;;;9.89;48.72;103995.38;5036322;28;20501;-72
2023/01/24 00:02:29;;;;;;;30.07;16.53;;;;;;;9.82;49.04;103989.00;5028270;28;20116;-71
2023/01/24 00:04:54;;;;;;;32.87;15.63;;;;;;;9.98;49.60;103979.19;5040211;28;20108;-72
2023/01/24 00:07:19;;;;;;;29.17;16.50;;;;;;;10.25;48.34;103976.84;5048112;28;20072;-71
2023/01/24 00:09:45;;;;;;;28.53;15.37;;;;;;;10.60;47.43;103979.16;5049326;28;20029;-72
2023/01/24 00:12:10;;;;;;;28.30;15.57;;;;;;;9.85;48.94;103985.63;5050032;28;20060;-72
2023/01/24 00:14:36;;;;;;;28.43;16.43;;;;;;;9.85;48.75;103980.41;5046835;28;20048;-72
2023/01/24 00:17:01;;;;;;;28.47;15.20;;;;;;;9.25;49.51;103970.78;5046734;28;20463;-72
2023/01/24 00:19:26;;;;;;;30.33;16.47;;;;;;;9.74;49.31;103977.31;5032147;28;20041;-71
2023/01/24 00:21:52;;;;;;;30.97;16.27;;;;;;;9.97;48.73;103975.69;5028600;28;20025;-72
2023/01/24 00:24:17;;;;;;;26.03;14.70;;;;;;;10.22;47.99;103976.72;5027604;28;20051;-72
2023/01/24 00:26:43;;;;;;;27.87;15.77;;;;;;;10.23;48.05;103978.50;5039544;28;20028;-72
2023/01/24 00:29:08;;;;;;;29.00;15.93;;;;;;;10.50;47.79;103977.88;5048675;28;20094;-72
2023/01/24 00:31:33;;;;;;;31.17;16.80;;;;;;;10.19;48.49;103971.34;5051142;28;20115;-72
2023/01/24 00:33:59;;;;;;;30.93;16.83;;;;;;;10.39;47.20;103968.72;5052192;28;20146;-72
2023/01/24 00:36:25;;;;;;;31.90;16.20;;;;;;;10.39;47.54;103974.84;5050885;28;20068;-72
2023/01/24 00:38:50;;;;;;;28.97;16.13;;;;;;;8.93;51.02;103983.25;5050640;28;20576;-72
2023/01/24 00:41:15;;;;;;;31.17;16.60;;;;;;;9.93;48.83;103979.00;5050972;28;20024;-72
2023/01/24 00:43:41;;;;;;;32.00;16.10;;;;;;;9.99;47.87;103974.03;5082589;28;20409;-71
2023/01/24 00:46:07;;;;;;;30.87;16.57;;;;;;;9.97;48.07;103978.31;5050114;28;20059;-72
2023/01/24 00:48:34;;;;;;;30.20;15.93;;;;;;;9.65;48.62;103972.56;5052741;28;20029;-72
2023/01/24 00:50:59;;;;;;;28.30;15.83;;;;;;;9.92;48.51;103974.59;5052327;28;20036;-71
2023/01/24 00:53:26;;;;;;;30.97;16.87;;;;;;;10.27;47.66;103969.94;5047387;28;20037;-71
2023/01/24 00:55:52;;;;;;;30.50;16.93;;;;;;;10.22;47.40;103966.28;5031705;28;20397;-72
2023/01/24 00:58:17;;;;;;;26.17;15.13;;;;;;;9.91;48.74;103962.34;5045925;28;20041;-71
2023/01/24 01:00:43;;;;;;;30.73;16.07;;;;;;;10.47;46.96;103956.84;5040372;28;20033;-72
2023/01/24 01:03:18;;;;;;;29.97;15.80;;;;;;;9.64;48.94;103965.59;5064967;28;20021;-72
2023/01/24 01:05:44;;;;;;;27.23;14.63;;;;;;;9.89;48.85;103966.66;5050184;28;20040;-72
2023/01/24 01:08:10;;;;;;;29.57;16.67;;;;;;;9.65;48.72;103962.13;5051373;28;20033;-72
2023/01/24 01:10:36;;;;;;;28.50;15.40;;;;;;;9.19;49.48;103964.41;5051205;28;20036;-72
2023/01/24 01:13:01;;;;;;;31.40;17.03;;;;;;;9.53;49.37;103966.81;5052162;28;20020;-72
2023/01/24 01:15:28;;;;;;;33.27;16.33;;;;;;;9.76;48.34;103954.75;5039646;28;20037;-72
2023/01/24 01:17:54;;;;;;;31.23;17.57;;;;;;;9.33;48.74;103956.38;5031361;28;20044;-72
2023/01/24 01:20:19;;;;;;;28.80;16.17;;;;;;;9.60;48.73;103952.31;5038012;28;20492;-72
2023/01/24 01:22:44;;;;;;;29.87;15.83;;;;;;;10.00;48.17;103944.47;5034422;28;20397;-72
2023/01/24 01:25:10;;;;;;;31.10;15.53;;;;;;;9.87;47.92;103952.59;5031089;28;20218;-71
2023/01/24 01:27:35;;;;;;;28.20;15.80;;;;;;;9.64;48.78;103960.34;5032359;28;20125;-71
2023/01/24 01:30:01;;;;;;;30.10;15.20;;;;;;;9.59;48.34;103956.63;5045138;28;20374;-72
2023/01/24 01:32:26;;;;;;;29.10;15.57;;;;;;;9.92;48.46;103951.09;5053491;28;20037;-72
2023/01/24 01:34:51;;;;;;;30.70;17.40;;;;;;;9.90;48.28;103957.94;5070359;28;20035;-72
2023/01/24 01:37:17;;;;;;;31.80;16.87;;;;;;;9.33;48.96;103956.38;5059830;28;20028;-72
2023/01/24 01:39:42;;;;;;;29.63;15.93;;;;;;;9.90;47.90;103957.94;5050170;28;20106;-72
2023/01/24 01:42:08;;;;;;;32.30;17.30;;;;;;;10.00;48.23;103949.69;5047547;28;20495;-73
2023/01/24 01:44:49;;;;;;;29.63;16.63;;;;;;;10.51;47.23;103949.19;5035585;28;20065;-72
2023/01/24 01:47:32;;;;;;;29.13;16.00;;;;;;;10.00;48.26;103949.69;5050564;28;20116;-71
2023/01/24 01:50:05;;;;;;;28.60;16.50;;;;;;;10.38;47.70;103935.56;5051701;28;20040;-72
2023/01/24 01:52:39;;;;;;;30.50;17.10;;;;;;;10.30;47.61;103941.34;5051513;28;20467;-71
2023/01/24 01:55:26;;;;;;;31.40;16.43;;;;;;;9.92;47.91;103935.41;5048445;28;20032;-72
2023/01/24 01:57:53;;;;;;;29.83;15.60;;;;;;;10.35;47.15;103931.97;5081519;28;20036;-72
2023/01/24 02:00:23;;;;;;;28.20;15.63;;;;;;;9.38;48.88;103950.47;5049198;28;20549;-72
2023/01/24 02:02:53;;;;;;;28.23;16.30;;;;;;;9.92;47.64;103940.63;5049076;28;20404;-72
2023/01/24 02:05:21;;;;;;;29.93;15.67;;;;;;;9.58;48.81;103948.75;5044248;28;20029;-72
2023/01/24 02:07:56;;;;;;;28.23;16.40;;;;;;;9.06;49.80;103942.06;5050125;28;20051;-72
2023/01/24 02:10:23;;;;;;;26.67;14.63;;;;;;;8.41;51.33;103939.88;5049394;28;20401;-72
2023/01/24 02:12:52;;;;;;;28.83;15.37;;;;;;;9.28;49.38;103942.22;5050810;28;20037;-72
2023/01/24 02:18:10;;;;;;;29.20;14.40;;;;;;;9.45;48.83;103936.84;5049214;28;20045;-72
2023/01/24 02:20:41;;;;;;;25.60;12.67;;;;;;;8.72;50.11;103941.38;5049675;28;20032;-71
2023/01/24 02:23:25;;;;;;;27.00;15.03;;;;;;;8.98;50.47;103940.00;5047231;28;20641;-72
2023/01/24 02:26:08;;;;;;;26.80;14.83;;;;;;;8.68;50.06;103949.00;5039860;28;20045;-72
2023/01/24 02:28:34;;;;;;;26.37;14.73;;;;;;;9.04;49.31;103941.09;5031051;28;20464;-72
2023/01/24 02:31:01;;;;;;;29.13;14.53;;;;;;;9.90;47.49;103934.44;5030246;28;20121;-72
2023/01/24 02:33:27;;;;;;;26.20;14.73;;;;;;;9.22;48.82;103943.66;5029513;28;20061;-72
2023/01/24 02:36:13;;;;;;;29.17;15.33;;;;;;;9.62;49.27;103935.00;5044708;28;20075;-72
2023/01/24 02:38:40;;;;;;;25.73;14.30;;;;;;;9.29;48.92;103941.41;5048835;28;20393;-72
2023/01/24 02:41:07;;;;;;;29.57;15.73;;;;;;;10.05;47.43;103941.16;5049832;28;20437;-72
2023/01/24 02:43:42;;;;;;;26.17;14.80;;;;;;;9.77;47.35;103940.88;5048285;28;20116;-72
2023/01/24 02:46:07;;;;;;;30.30;15.70;;;;;;;9.45;47.65;103937.75;5044567;28;20171;-71
2023/01/24 02:48:33;;;;;;;29.20;15.97;;;;;;;9.64;48.06;103949.91;5030493;28;20478;-72
2023/01/24 02:53:42;;;;;;;30.63;15.63;;;;;;;9.23;48.84;103941.13;5031090;28;20091;-72
2023/01/24 02:58:53;;;;;;;28.90;15.40;;;;;;;9.20;49.04;103934.88;5030423;28;20160;-72
2023/01/24 03:01:20;;;;;;;30.00;16.67;;;;;;;9.68;47.51;103936.16;5029112;28;20037;-72
2023/01/24 03:03:46;;;;;;;30.40;16.90;;;;;;;9.45;48.68;103942.06;5062720;28;20037;-72
2023/01/24 03:06:13;;;;;;;34.67;18.20;;;;;;;8.66;49.80;103930.66;5028145;28;20056;-72
2023/01/24 03:08:39;;;;;;;31.97;16.77;;;;;;;9.40;48.88;103927.94;5047283;28;20040;-72
2023/01/24 03:11:05;;;;;;;28.93;16.23;;;;;;;8.81;49.78;103933.09;5081538;28;20021;-72
2023/01/24 03:35:25;;;;;;;29.83;15.23;;;;;;;8.97;48.77;103927.78;5030173;28;20044;-71
2023/01/24 03:40:34;;;;;;;29.40;15.83;;;;;;;8.28;50.56;103927.06;5045010;28;20515;-72
2023/01/24 03:43:00;;;;;;;33.27;16.33;;;;;;;9.41;48.83;103919.25;5048345;28;20021;-72
2023/01/24 03:45:28;;;;;;;30.20;17.37;;;;;;;8.88;49.64;103919.53;5047170;28;20063;-71
2023/01/24 03:47:57;;;;;;;28.37;16.17;;;;;;;8.35;50.95;103920.44;5081602;28;20021;-71
2023/01/24 03:53:18;;;;;;;33.03;17.47;;;;;;;8.88;49.39;103927.34;5049353;28;20122;-72
2023/01/24 03:55:43;;;;;;;31.17;17.20;;;;;;;9.57;48.71;103933.88;5046951;28;20027;-71
2023/01/24 03:58:10;;;;;;;30.33;16.20;;;;;;;9.55;48.71;103933.84;5049772;28;20025;-72
2023/01/24 04:00:37;;;;;;;38.80;17.70;;;;;;;9.84;47.06;103924.63;5048918;28;20159;-72
2023/01/24 04:03:03;;;;;;;33.33;17.83;;;;;;;9.15;48.93;103937.28;5050022;28;20036;-71
2023/01/24 04:05:29;;;;;;;28.23;16.27;;;;;;;9.36;48.66;103936.47;5049718;28;20443;-72
2023/01/24 04:07:55;;;;;;;33.93;18.30;;;;;;;9.25;48.43;103935.97;5086028;28;20037;-72
2023/01/24 04:10:22;;;;;;;31.30;17.20;;;;;;;9.31;48.56;103929.31;5049573;28;20033;-71
2023/01/24 04:12:48;;;;;;;29.77;16.90;;;;;;;8.42;51.21;103930.34;5051116;28;20044;-72
2023/01/24 04:15:28;;;;;;;36.07;18.73;;;;;;;9.89;48.09;103930.06;5047298;28;20025;-72
2023/01/24 04:17:56;;;;;;;33.17;17.73;;;;;;;9.55;47.59;103927.69;5032449;28;20029;-72
2023/01/24 04:20:22;;;;;;;31.87;17.47;;;;;;;9.70;48.60;103922.25;5031744;28;20025;-72
2023/01/24 04:22:48;;;;;;;28.63;16.63;;;;;;;9.43;48.71;103928.06;5037038;28;20477;-72
2023/01/24 04:25:14;;;;;;;34.77;18.00;;;;;;;9.07;48.92;103928.22;5050450;28;20040;-73
2023/01/24 04:27:39;;;;;;;32.67;17.23;;;;;;;8.74;49.91;103924.09;5052809;28;20033;-72
2023/01/24 04:30:06;;;;;;;31.77;17.00;;;;;;;8.93;49.07;103924.94;5051515;28;20036;-72
2023/01/24 04:32:32;;;;;;;28.10;16.37;;;;;;;8.99;49.25;103926.13;5034677;28;20029;-72
2023/01/24 04:34:57;;;;;;;34.00;17.90;;;;;;;9.71;48.33;103921.44;5036684;28;20086;-72
2023/01/24 04:37:22;;;;;;;29.80;16.23;;;;;;;9.14;49.50;103925.94;5042566;28;20477;-72
2023/01/24 04:39:48;;;;;;;32.43;16.80;;;;;;;8.59;49.83;103934.69;5033046;28;20088;-72
2023/01/24 04:42:13;;;;;;;27.87;16.43;;;;;;;8.60;51.56;103928.66;5046810;28;20051;-71
2023/01/24 04:44:38;;;;;;;29.17;15.97;;;;;;;9.03;49.11;103932.38;5032478;28;20029;-71
2023/01/24 04:47:04;;;;;;;29.37;15.70;;;;;;;8.81;49.82;103930.50;5033278;28;20478;-71
2023/01/24 04:49:29;;;;;;;28.20;15.83;;;;;;;8.96;49.39;103936.41;5035942;28;20040;-71
2023/01/24 04:51:55;;;;;;;32.03;16.40;;;;;;;9.65;47.98;103933.38;5046526;28;20030;-71
2023/01/24 04:54:20;;;;;;;34.10;17.53;;;;;;;9.89;46.83;103927.44;5048035;28;20039;-71
2023/01/24 04:56:46;;;;;;;25.83;15.37;;;;;;;10.02;47.07;103931.47;5052077;28;20037;-71
2023/01/24 04:59:12;;;;;;;31.80;16.80;;;;;;;9.23;47.89;103941.13;5053174;28;20060;-72
2023/01/24 05:01:37;;;;;;;30.53;16.47;;;;;;;8.88;48.93;103956.03;5050495;28;20021;-71
2023/01/24 05:04:03;;;;;;;29.07;15.63;;;;;;;9.21;48.81;103944.50;5053102;28;20068;-74
2023/01/24 05:06:31;;;;;;;27.00;14.43;;;;;;;9.02;48.44;103955.81;5048814;28;20055;-71
2023/01/24 05:08:56;;;;;;;28.17;15.47;;;;;;;9.21;47.99;103947.09;5066715;28;20025;-71
2023/01/24 05:11:22;;;;;;;26.57;14.50;;;;;;;8.76;49.02;103951.13;5030790;28;20049;-71
2023/01/24 05:13:48;;;;;;;27.13;15.00;;;;;;;9.00;49.34;103948.78;5051069;28;20028;-71
2023/01/24 05:16:15;;;;;;;26.43;14.43;;;;;;;8.91;49.10;103947.47;5053827;28;20031;-71
2023/01/24 05:18:40;;;;;;;27.43;14.43;;;;;;;9.32;48.52;103945.84;5030225;28;20039;-72
2023/01/24 05:21:08;;;;;;;27.13;15.03;;;;;;;9.23;48.91;103954.19;5031081;28;20029;-72
2023/01/24 05:23:34;;;;;;;28.60;16.47;;;;;;;8.73;50.01;103955.34;5031980;28;20033;-72
2023/01/24 05:26:00;;;;;;;27.23;14.90;;;;;;;9.06;48.94;103947.28;5031534;28;20500;-71
2023/01/24 05:28:26;;;;;;;27.13;15.07;;;;;;;9.32;49.03;103951.97;5030682;28;20033;-72
2023/01/24 05:30:51;;;;;;;27.87;15.63;;;;;;;9.34;48.81;103952.94;5031011;28;20028;-72
2023/01/24 05:33:16;;;;;;;27.73;15.50;;;;;;;9.17;49.16;103956.50;5031438;28;20102;-72
2023/01/24 05:35:44;;;;;;;25.73;14.03;;;;;;;8.62;50.49;103960.91;5049682;28;20067;-72
2023/01/24 05:38:09;;;;;;;29.93;16.53;;;;;;;9.18;49.60;103963.50;5042124;28;20033;-72
2023/01/24 05:40:34;;;;;;;29.20;15.07;;;;;;;8.85;49.78;103962.81;5046398;28;20119;-72
2023/01/24 05:43:00;;;;;;;27.77;15.90;;;;;;;9.03;49.80;103957.59;5050224;28;20029;-72
2023/01/24 05:45:25;;;;;;;25.77;14.67;;;;;;;8.66;50.57;103957.63;5049870;28;20040;-72
2023/01/24 05:47:51;;;;;;;26.97;14.60;;;;;;;8.89;50.25;103960.44;5050164;28;20025;-72
2023/01/24 05:50:16;;;;;;;26.27;14.70;;;;;;;8.34;51.60;103976.91;5049379;28;20044;-72
2023/01/24 05:52:42;;;;;;;28.97;14.77;;;;;;;8.58;50.71;103972.00;5050293;28;20103;-72
2023/01/24 05:55:07;;;;;;;27.73;14.73;;;;;;;8.44;51.47;103967.81;5049696;28;20529;-72
2023/01/24 05:57:36;;;;;;;27.53;14.67;;;;;;;8.70;51.20;103968.22;5040521;28;20060;-72
2023/01/24 06:00:03;;;;;;;29.57;14.60;;;;;;;8.34;51.71;103974.31;5031832;28;20026;-72
2023/01/24 06:02:28;;;;;;;26.57;14.43;;;;;;;9.09;50.23;103973.53;5040980;28;20032;-72
2023/01/24 06:04:54;;;;;;;25.80;14.33;;;;;;;8.86;50.89;103975.97;5030539;28;20021;-72
2023/01/24 06:07:19;;;;;;;28.93;14.70;;;;;;;8.61;51.78;103973.88;5034735;28;20056;-71
2023/01/24 06:09:44;;;;;;;33.03;17.13;;;;;;;8.47;50.98;103965.41;5049585;28;20428;-72
2023/01/24 06:12:10;;;;;;;27.37;14.90;;;;;;;8.72;51.22;103967.47;5049562;28;20043;-72
2023/01/24 06:14:35;;;;;;;27.00;13.40;;;;;;;7.97;52.43;103978.56;5048246;28;20032;-71
2023/01/24 06:17:00;;;;;;;27.53;14.57;;;;;;;8.13;51.28;103980.22;5040466;28;20025;-72
2023/01/24 06:19:26;;;;;;;27.43;14.70;;;;;;;9.00;50.28;103968.78;5048005;28;20139;-72
2023/01/24 06:22:08;;;;;;;27.40;14.73;;;;;;;8.87;51.51;103982.94;5049327;28;20059;-72
2023/01/24 06:24:34;;;;;;;29.03;14.37;;;;;;;8.60;50.46;103982.50;5048808;28;20439;-72
2023/01/24 06:26:59;;;;;;;26.87;13.90;;;;;;;8.26;51.49;103980.84;5031115;28;20485;-72
2023/01/24 06:29:25;;;;;;;27.03;15.20;;;;;;;9.21;49.21;103978.44;5047089;28;20449;-72
2023/01/24 06:32:09;;;;;;;30.37;14.50;;;;;;;8.91;50.06;103982.28;5049875;28;20029;-72
2023/01/24 06:35:07;;;;;;;26.27;13.67;;;;;;;8.43;50.85;103977.34;5049597;28;20056;-72
2023/01/24 06:37:46;;;;;;;26.60;14.50;;;;;;;8.35;51.75;103991.72;5045658;28;20059;-72
2023/01/24 06:40:14;;;;;;;28.10;14.83;;;;;;;7.99;52.74;103996.84;5038245;28;20380;-72
2023/01/24 06:42:40;;;;;;;24.57;12.93;;;;;;;8.29;52.29;103996.63;5049204;28;20029;-72
2023/01/24 06:45:06;;;;;;;26.07;13.90;;;;;;;9.02;49.78;103997.56;5048195;28;20029;-72
2023/01/24 06:47:32;;;;;;;28.40;14.17;;;;;;;9.06;49.90;104004.69;5045808;28;20132;-71
2023/01/24 06:49:57;;;;;;;28.13;14.00;;;;;;;8.84;49.62;104003.69;5073291;28;20112;-72
2023/01/24 06:52:23;;;;;;;30.57;15.10;;;;;;;8.44;52.06;103997.38;5049333;28;20431;-72
2023/01/24 06:54:48;;;;;;;31.83;16.10;;;;;;;8.84;49.88;103990.63;5048030;28;20033;-72
2023/01/24 06:57:14;;;;;;;30.80;16.27;;;;;;;8.99;50.03;103993.97;5051871;28;20052;-72
2023/01/24 06:59:39;;;;;;;32.40;16.03;;;;;;;8.58;50.10;103989.38;5049804;28;20123;-71
2023/01/24 07:02:05;;;;;;;29.20;16.47;;;;;;;8.99;50.53;103996.56;5048525;28;20020;-72
2023/01/24 07:04:30;;;;;;;32.90;16.80;;;;;;;8.90;50.31;103996.16;5046212;28;20485;-72
2023/01/24 07:06:56;;;;;;;29.73;15.57;;;;;;;8.41;50.83;104001.56;5044689;28;20037;-71
2023/01/24 07:09:22;;;;;;;30.13;15.40;;;;;;;9.53;48.56;103997.25;5041383;28;20478;-72
2023/01/24 07:11:52;;;;;;;30.30;16.00;;;;;;;9.53;48.48;103992.91;5040839;28;20033;-72
2023/01/24 07:14:17;;;;;;;29.03;17.07;;;;;;;9.25;49.33;104001.25;5032553;28;20452;-72
2023/01/24 07:16:43;;;;;;;29.80;16.43;;;;;;;8.10;52.20;104011.31;5029324;28;20030;-72
2023/01/24 07:19:15;;;;;;;30.03;15.50;;;;;;;9.08;49.87;103997.81;5014761;28;20036;-71
2023/01/24 07:21:41;;;;;;;28.50;16.48;;;;;;;8.68;50.30;104001.16;5043554;28;20033;-71
2023/01/24 07:24:13;;;;;;;30.37;16.57;;;;;;;8.62;51.22;104002.63;5042327;28;20025;-72
2023/01/24 07:26:39;;;;;;;29.50;15.85;;;;;;;9.23;49.18;104003.78;5041764;28;20025;-72
2023/01/24 07:29:04;;;;;;;32.80;17.23;;;;;;;9.10;49.94;104004.03;5039082;28;20030;-72
2023/01/24 07:31:29;;;;;;;31.67;17.07;;;;;;;8.86;50.31;104001.13;5040947;28;20571;-71
2023/01/24 07:33:55;;;;;;;30.30;16.00;;;;;;;8.79;49.94;104015.59;5042219;28;20066;-71
2023/01/24 07:36:20;;;;;;;35.03;17.60;;;;;;;8.57;51.19;104019.78;5043385;28;20071;-71
2023/01/24 07:38:45;;;;;;;33.10;17.00;;;;;;;9.07;50.10;104017.81;5037926;28;20479;-72
2023/01/24 07:41:11;;;;;;;32.60;17.00;;;;;;;8.95;49.58;104020.72;5051568;28;20036;-72
2023/01/24 07:43:37;;;;;;;32.53;17.23;;;;;;;8.89;49.74;104022.16;5052344;28;20047;-72
2023/01/24 07:46:03;;;;;;;33.63;18.33;;;;;;;9.40;49.06;104020.19;5051005;28;20061;-72
2023/01/24 07:48:28;;;;;;;32.37;17.20;;;;;;;9.27;49.23;104028.28;5052915;28;20035;-72
2023/01/24 07:50:58;;;;;;;32.50;16.67;;;;;;;9.36;49.38;104031.34;5051778;28;20032;-72
2023/01/24 07:53:23;;;;;;;31.90;17.30;;;;;;;8.81;50.21;104025.28;5051902;28;20442;-72
2023/01/24 07:55:49;;;;;;;34.17;17.00;;;;;;;8.58;50.77;104037.19;5054442;28;20028;-72
2023/01/24 07:58:14;;;;;;;31.47;16.03;;;;;;;8.71;50.60;104029.97;5052406;28;20025;-72
2023/01/24 08:00:40;;;;;;;32.53;17.97;;;;;;;8.97;49.64;104024.31;5036981;28;20493;-72
2023/01/24 08:03:05;;;;;;;33.77;17.40;;;;;;;8.82;49.82;104034.03;5032687;28;20021;-72
2023/01/24 08:05:30;;;;;;;30.07;16.17;;;;;;;7.97;52.35;104045.41;5065499;28;20728;-72
2023/01/24 08:07:56;;;;;;;32.57;17.00;;;;;;;8.72;51.07;104039.59;5064747;28;20053;-72
2023/01/24 08:10:21;;;;;;;38.53;18.90;;;;;;;8.86;50.53;104035.97;5077474;28;20040;-72
2023/01/24 08:12:48;;;;;;;31.33;17.03;;;;;;;8.13;52.30;104049.69;5052915;28;20033;-72
2023/01/24 08:15:14;;;;;;;39.00;18.30;;;;;;;8.39;51.56;104039.69;5052701;28;20025;-72
2023/01/24 08:17:39;;;;;;;34.80;18.13;;;;;;;8.26;51.98;104040.78;5052333;28;20500;-72
2023/01/24 08:20:06;;;;;;;32.47;17.87;;;;;;;8.59;51.56;104044.22;5050925;28;20473;-72
2023/01/24 08:22:31;;;;;;;36.23;18.10;;;;;;;8.46;51.38;104042.72;5051025;28;20536;-72
2023/01/24 08:24:57;;;;;;;36.07;18.80;;;;;;;7.97;52.34;104050.59;5052445;28;20033;-72
2023/01/24 08:27:22;;;;;;;39.60;18.63;;;;;;;7.82;53.79;104053.31;5053163;28;20040;-72
2023/01/24 08:29:47;;;;;;;39.43;19.73;;;;;;;8.45;52.13;104050.47;5051460;28;20021;-72
2023/01/24 08:32:13;;;;;;;38.13;19.87;;;;;;;8.74;50.01;104044.06;5053213;28;20025;-72
2023/01/24 08:34:38;;;;;;;38.83;20.27;;;;;;;8.55;50.54;104050.09;5051774;28;20496;-72
2023/01/24 08:37:03;;;;;;;37.67;19.60;;;;;;;9.06;50.08;104046.47;5084936;28;20120;-72
2023/01/24 08:39:29;;;;;;;40.53;19.83;;;;;;;8.11;52.61;104065.22;5049120;28;20032;-72
2023/01/24 08:41:54;;;;;;;39.50;21.10;;;;;;;8.76;51.07;104055.47;5032335;28;20021;-71
2023/01/24 08:44:19;;;;;;;38.10;19.80;;;;;;;8.62;51.25;104060.00;5030979;28;20087;-72
2023/01/24 08:46:45;;;;;;;36.57;19.30;;;;;;;8.90;50.75;104061.38;5036128;28;20029;-72
2023/01/24 08:49:10;;;;;;;36.10;19.80;;;;;;;9.23;49.80;104061.19;5051081;28;20036;-72
2023/01/24 08:51:36;;;;;;;39.13;19.87;;;;;;;9.15;49.91;104062.56;5046243;28;20025;-72
2023/01/24 08:54:03;;;;;;;41.93;20.07;;;;;;;9.25;50.07;104059.53;5031764;28;20029;-71
2023/01/24 08:56:29;;;;;;;36.60;18.90;;;;;;;8.43;51.43;104078.13;5030607;28;20119;-71
2023/01/24 08:58:54;;;;;;;41.13;18.30;;;;;;;8.27;52.76;104072.13;5045631;28;20074;-72
2023/01/24 09:01:20;;;;;;;39.13;20.20;;;;;;;8.43;52.27;104078.13;5084853;28;20025;-71
2023/01/24 09:03:45;;;;;;;41.83;20.60;;;;;;;8.92;51.30;104070.16;5051444;28;20029;-72
2023/01/24 09:06:10;;;;;;;39.53;19.80;;;;;;;8.52;51.39;104073.41;5050464;28;20132;-72
2023/01/24 09:08:36;;;;;;;37.77;19.60;;;;;;;9.14;49.86;104072.09;5051002;28;20512;-72
2023/01/24 09:11:01;;;;;;;41.50;20.20;;;;;;;8.87;50.83;104075.97;5050480;28;20052;-72
2023/01/24 09:13:27;;;;;;;42.73;19.43;;;;;;;8.55;51.31;104084.00;5052212;28;20036;-71
2023/01/24 09:15:53;;;;;;;35.90;18.43;;;;;;;8.29;51.71;104090.47;5050568;28;20110;-72
2023/01/24 09:18:18;;;;;;;34.73;17.10;;;;;;;7.45;53.87;104088.66;5049892;28;20492;-72
2023/01/24 09:20:44;;;;;;;33.80;17.30;;;;;;;7.96;52.84;104093.97;5051605;28;20127;-72
2023/01/24 09:23:14;;;;;;;41.13;18.67;;;;;;;8.72;52.05;104084.81;5052525;28;20480;-71
2023/01/24 09:25:40;;;;;;;37.80;17.53;;;;;;;8.85;50.29;104088.94;5049885;28;20029;-72
2023/01/24 09:28:06;;;;;;;38.83;17.33;;;;;;;8.57;51.33;104098.03;5051080;28;20021;-72
2023/01/24 09:30:32;;;;;;;36.70;18.03;;;;;;;9.25;49.84;104087.38;5050118;28;20033;-71
2023/01/24 09:32:57;;;;;;;37.70;18.90;;;;;;;8.66;51.47;104092.34;5039896;28;20029;-72
2023/01/24 09:35:22;;;;;;;38.03;19.20;;;;;;;8.37;52.47;104103.91;5048086;28;20468;-72
2023/01/24 09:37:51;;;;;;;39.07;19.33;;;;;;;7.83;53.48;104096.78;5051634;28;20017;-72
2023/01/24 09:40:19;;;;;;;33.63;17.00;;;;;;;8.17;53.00;104095.91;5083249;28;20024;-71
2023/01/24 09:42:51;;;;;;;37.03;17.23;;;;;;;8.87;50.99;104095.13;5044939;28;20033;-71
2023/01/24 09:45:21;;;;;;;40.72;17.70;;;;;;;8.54;51.87;104103.06;5031873;28;20544;-71
2023/01/24 09:47:53;;;;;;;36.80;17.67;;;;;;;8.31;52.05;104110.59;5031546;28;20044;-72
2023/01/24 09:50:34;;;;;;;39.92;19.88;;;;;;;8.98;51.62;104095.66;5063432;28;20087;-72
2023/01/24 09:53:01;;;;;;;38.87;18.73;;;;;;;8.25;52.83;104115.47;5038173;28;20521;-72
2023/01/24 09:55:32;;;;;;;39.47;19.13;;;;;;;9.15;51.40;104104.31;5048640;28;20041;-72
2023/01/24 09:58:18;;;;;;;39.47;19.20;;;;;;;8.78;51.04;104107.75;5050566;28;20057;-72
2023/01/24 10:00:44;;;;;;;37.67;18.83;;;;;;;8.49;52.69;104115.00;5050405;28;20203;-71
2023/01/24 10:03:20;;;;;;;39.47;18.60;;;;;;;8.88;51.13;104109.97;5050590;28;20017;-72
2023/01/24 10:05:48;;;;;;;39.90;19.17;;;;;;;8.86;51.41;104111.63;5049345;28;20029;-71
2023/01/24 10:08:30;;;;;;;33.67;17.97;;;;;;;8.63;52.04;104123.50;5049768;28;20080;-71
2023/01/24 10:11:10;;;;;;;39.13;18.53;;;;;;;8.69;51.98;104115.97;5050818;28;20147;-72
2023/01/24 10:14:18;;;;;;;39.70;19.30;;;;;;;9.16;51.74;104108.69;5050551;28;20028;-72
2023/01/24 10:16:43;;;;;;;38.83;19.97;;;;;;;8.33;52.53;104123.69;5051022;28;20069;-72
2023/01/24 10:19:39;;;;;;;42.53;20.53;;;;;;;8.27;54.23;104124.25;5036821;28;20021;-72
2023/01/24 10:22:16;;;;;;;41.10;19.87;;;;;;;8.42;52.63;104112.81;5029488;28;20037;-72
2023/01/24 10:24:51;;;;;;;40.10;20.23;;;;;;;8.43;52.08;104115.50;5030179;28;20033;-72
2023/01/24 10:27:41;;;;;;;40.17;19.17;;;;;;;9.28;51.07;104111.00;5029750;28;20049;-71
2023/01/24 10:30:25;;;;;;;38.23;19.70;;;;;;;9.33;51.15;104109.53;5048599;28;20068;-71
2023/01/24 10:32:54;;;;;;;41.67;20.27;;;;;;;9.31;50.07;104105.94;5049796;28;20472;-71
2023/01/24 10:35:28;;;;;;;43.53;20.93;;;;;;;8.56;52.27;104108.34;5082477;28;20032;-71
2023/01/24 10:37:59;;;;;;;37.90;18.93;;;;;;;8.70;52.47;104106.47;5050551;28;20020;-71
2023/01/24 10:40:25;;;;;;;35.83;18.67;;;;;;;8.95;51.84;104096.41;5050626;28;20469;-72
2023/01/24 10:42:51;;;;;;;31.90;16.70;;;;;;;8.84;50.97;104094.97;5048965;28;20036;-72
2023/01/24 10:45:44;;;;;;;40.13;20.40;;;;;;;9.11;50.89;104094.56;5049312;28;20448;-72
2023/01/24 10:48:48;;;;;;;36.83;18.92;;;;;;;9.07;50.08;104095.22;5029754;28;20075;-72
2023/01/24 10:51:17;;;;;;;36.80;18.80;;;;;;;9.50;49.50;104094.63;5028413;28;20123;-72
2023/01/24 10:53:43;;;;;;;34.83;17.97;;;;;;;9.06;50.21;104096.03;5030897;28;20083;-72
2023/01/24 10:56:10;;;;;;;37.07;18.77;;;;;;;9.16;50.57;104088.72;5028902;28;20416;-71
2023/01/24 10:58:55;;;;;;;37.07;19.03;;;;;;;9.17;50.90;104092.22;5048605;28;20021;-72
2023/01/24 11:01:34;;;;;;;35.57;17.10;;;;;;;8.98;50.94;104086.13;5049598;28;20036;-72
2023/01/24 11:04:19;;;;;;;36.87;18.67;;;;;;;9.01;51.10;104085.34;5049134;28;20029;-71
2023/01/24 11:06:47;;;;;;;38.37;19.23;;;;;;;9.48;49.43;104081.50;5051203;28;20048;-72
2023/01/24 11:09:20;;;;;;;37.73;18.27;;;;;;;8.99;50.84;104077.47;5048812;28;20280;-72
2023/01/24 11:11:50;;;;;;;36.23;17.80;;;;;;;8.61;51.57;104071.28;5049619;28;20055;-72
2023/01/24 11:14:25;;;;;;;36.60;18.97;;;;;;;9.44;50.47;104063.91;5047699;28;20037;-72
2023/01/24 11:16:53;;;;;;;38.07;18.23;;;;;;;9.07;51.09;104062.19;5050486;28;20447;-71
2023/01/24 11:19:34;;;;;;;35.40;18.37;;;;;;;9.64;50.44;104062.22;5048321;28;20108;-71
2023/01/24 11:22:02;;;;;;;37.83;18.03;;;;;;;8.45;51.92;104072.22;5049211;28;20547;-72
2023/01/24 11:24:28;;;;;;;35.53;19.00;;;;;;;9.45;49.90;104067.41;5039870;28;20077;-72
2023/01/24 11:27:19;;;;;;;39.67;17.30;;;;;;;9.08;51.87;104061.38;5029139;28;20033;-72
2023/01/24 11:30:03;;;;;;;36.77;18.60;;;;;;;8.70;52.34;104073.44;5028962;28;20075;-71
2023/01/24 11:33:10;;;;;;;34.10;17.17;;;;;;;9.04;52.09;104069.88;5028261;28;20030;-72
2023/01/24 11:35:50;;;;;;;38.17;19.40;;;;;;;9.12;51.86;104062.38;5044050;28;20104;-72
2023/01/24 11:38:34;;;;;;;31.87;17.07;;;;;;;9.38;50.87;104065.34;5048487;28;20469;-72
2023/01/24 11:41:15;;;;;;;42.43;19.53;;;;;;;9.03;51.96;104057.63;5050439;28;20029;-72
2023/01/24 11:44:19;;;;;;;36.43;17.70;;;;;;;9.17;51.40;104053.06;5050174;28;20028;-72
2023/01/24 11:47:13;;;;;;;32.93;18.03;;;;;;;9.39;50.04;104059.31;5044665;28;20083;-72
2023/01/24 11:49:54;;;;;;;31.70;16.43;;;;;;;8.58;50.90;104057.19;5028629;28;20076;-72
2023/01/24 11:52:43;;;;;;;30.63;15.53;;;;;;;7.93;53.16;104057.34;5027890;28;20064;-72
2023/01/24 11:55:20;;;;;;;32.97;16.40;;;;;;;8.30;51.94;104056.66;5065124;28;20036;-72
2023/01/24 11:57:58;;;;;;;32.40;16.00;;;;;;;8.55;51.42;104042.28;5048830;28;20481;-72
2023/01/24 12:00:26;;;;;;;34.30;16.97;;;;;;;8.82;50.70;104037.53;5047878;28;20409;-72